Time;durP1;ratioP1;P1;durP2;ratioP2;P2;SDS_P1;SDS_P2;PMS_P1;PMS_P2;Temp;Humidity;BMP_temperature;BMP_pressure;BME280_temperature;BME280_humidity;BME280_pressure;Samples;Min_cycle;Max_cycle;Signal;HPM_P1;HPM_P2
2023/03/20 00:00:07;;;;;;;3.58;2.95;;;;;;;9.19;90.42;98538.53;7379912;19;19929;-71
2023/03/20 00:02:34;;;;;;;4.75;4.35;;;;;;;9.18;90.39;98534.19;7381860;19;20580;-72
2023/03/20 00:05:01;;;;;;;2.72;2.53;;;;;;;9.13;90.12;98531.16;7381809;19;19918;-71
2023/03/20 00:07:28;;;;;;;3.33;2.90;;;;;;;9.06;89.98;98540.66;7385211;19;19922;-74
2023/03/20 00:09:56;;;;;;;3.53;2.30;;;;;;;8.99;90.16;98550.09;7382902;19;19919;-72
2023/03/20 00:12:27;;;;;;;3.08;2.15;;;;;;;8.92;90.19;98549.81;7384824;19;19925;-72
2023/03/20 00:14:54;;;;;;;2.97;2.55;;;;;;;8.89;90.66;98546.63;7379909;19;19917;-71
2023/03/20 00:17:20;;;;;;;3.22;2.70;;;;;;;8.96;90.73;98555.66;7381354;19;19918;-72
2023/03/20 00:19:47;;;;;;;3.05;2.35;;;;;;;8.98;90.89;98559.00;7385518;19;19919;-72
2023/03/20 00:22:14;;;;;;;3.17;2.30;;;;;;;9.00;90.98;98549.09;7382565;19;19974;-72
2023/03/20 00:24:41;;;;;;;3.40;2.63;;;;;;;8.95;91.21;98552.19;7385820;19;19918;-72
2023/03/20 00:27:11;;;;;;;2.42;1.90;;;;;;;9.00;91.18;98546.47;7384985;19;19947;-71
2023/03/20 00:29:38;;;;;;;1.85;1.70;;;;;;;8.97;91.06;98541.47;7381544;19;20294;-71
2023/03/20 00:32:11;;;;;;;1.90;1.60;;;;;;;8.97;90.61;98546.75;7381141;19;19957;-72
2023/03/20 00:34:38;;;;;;;2.20;2.00;;;;;;;8.97;90.57;98549.41;7383612;19;19919;-72
2023/03/20 00:37:05;;;;;;;2.38;2.17;;;;;;;9.03;90.51;98546.22;7380958;19;19925;-72
2023/03/20 00:39:31;;;;;;;2.08;1.88;;;;;;;9.09;90.17;98553.56;7382649;19;19911;-72
2023/03/20 00:42:02;;;;;;;2.45;2.17;;;;;;;9.10;90.04;98546.47;7383410;19;20019;-72
2023/03/20 00:44:44;;;;;;;2.55;1.88;;;;;;;9.11;90.11;98548.97;7384393;19;19929;-72
2023/03/20 00:47:15;;;;;;;2.33;2.13;;;;;;;9.13;90.11;98554.91;7381985;19;19926;-72
2023/03/20 00:49:44;;;;;;;2.85;2.08;;;;;;;9.14;90.06;98556.59;7383005;19;20584;-72
2023/03/20 00:52:11;;;;;;;1.73;1.63;;;;;;;9.14;90.02;98559.25;7380829;19;19970;-72
2023/03/20 00:54:38;;;;;;;2.67;2.47;;;;;;;9.13;90.21;98560.19;7381013;19;19943;-72
2023/03/20 00:57:12;;;;;;;1.70;1.60;;;;;;;9.16;90.36;98557.28;7383512;19;19926;-72
2023/03/20 00:59:50;;;;;;;2.50;1.65;;;;;;;9.18;90.35;98559.78;7385495;19;19943;-72
2023/03/20 01:02:17;;;;;;;2.35;2.15;;;;;;;9.17;90.40;98558.94;7382095;19;20646;-72
2023/03/20 01:04:43;;;;;;;2.38;2.17;;;;;;;9.20;90.38;98568.38;7384731;19;19943;-72
2023/03/20 01:07:13;;;;;;;1.98;1.58;;;;;;;9.21;90.40;98562.94;7384690;19;20271;-72
2023/03/20 01:09:40;;;;;;;1.88;1.65;;;;;;;9.17;90.21;98547.56;7383078;19;19926;-72
2023/03/20 01:12:09;;;;;;;2.83;1.85;;;;;;;9.20;90.44;98553.38;7383394;19;19943;-72
2023/03/20 01:14:36;;;;;;;2.58;2.38;;;;;;;9.20;90.21;98560.47;7383153;19;19918;-72
2023/03/20 01:17:03;;;;;;;2.95;2.25;;;;;;;9.00;90.79;98562.31;7381396;19;19934;-72
2023/03/20 01:19:30;;;;;;;4.32;2.28;;;;;;;9.09;90.74;98564.09;7383644;19;19930;-72
2023/03/20 01:21:56;;;;;;;2.20;2.00;;;;;;;9.17;90.38;98558.94;7383620;19;20355;-73
2023/03/20 01:24:23;;;;;;;2.63;2.25;;;;;;;9.17;90.32;98568.69;7382419;19;19934;-74
2023/03/20 01:26:51;;;;;;;2.58;1.88;;;;;;;9.18;90.26;98565.06;7379294;19;19918;-72
2023/03/20 01:29:23;;;;;;;3.00;2.40;;;;;;;9.18;90.17;98550.03;7374499;19;19923;-72
2023/03/20 01:31:51;;;;;;;3.20;2.90;;;;;;;9.14;90.03;98551.31;7380277;19;19942;-72
2023/03/20 01:34:19;;;;;;;2.30;2.00;;;;;;;9.11;89.97;98558.66;7382945;19;19918;-72
2023/03/20 01:36:49;;;;;;;2.55;2.17;;;;;;;9.07;89.95;98549.38;7388432;19;19922;-72
2023/03/20 01:39:17;;;;;;;4.22;3.97;;;;;;;9.04;89.90;98555.78;7388645;19;20538;-72
2023/03/20 01:41:45;;;;;;;2.72;2.50;;;;;;;9.05;89.85;98559.25;7383503;19;19925;-72
2023/03/20 01:44:28;;;;;;;2.83;2.63;;;;;;;9.05;89.71;98562.72;7385928;19;19991;-72
2023/03/20 01:46:57;;;;;;;2.88;2.38;;;;;;;9.08;89.92;98564.22;7386137;19;19918;-72
2023/03/20 01:49:24;;;;;;;2.63;2.42;;;;;;;9.13;89.91;98562.00;7389262;19;19919;-72
2023/03/20 01:51:55;;;;;;;4.20;3.40;;;;;;;9.19;90.09;98561.47;7384110;19;19994;-72
2023/03/20 01:54:25;;;;;;;4.43;3.53;;;;;;;9.27;90.06;98560.72;7388494;19;19922;-72
2023/03/20 01:56:58;;;;;;;3.63;2.63;;;;;;;9.28;89.79;98551.84;7383509;19;20264;-71
2023/03/20 01:59:28;;;;;;;4.00;3.60;;;;;;;9.30;89.97;98561.28;7388188;19;20026;-72
2023/03/20 02:01:55;;;;;;;4.03;3.08;;;;;;;9.33;89.85;98562.81;7386944;19;19919;-72
2023/03/20 02:04:26;;;;;;;5.68;3.97;;;;;;;9.31;89.83;98559.47;7390373;19;19918;-73
2023/03/20 02:07:00;;;;;;;4.75;4.10;;;;;;;9.28;89.68;98570.31;7385563;19;19926;-72
2023/03/20 02:09:36;;;;;;;5.00;4.05;;;;;;;9.18;90.07;98576.44;7385728;19;19954;-72
2023/03/20 02:12:07;;;;;;;4.95;4.43;;;;;;;9.19;90.04;98579.94;7382112;19;19922;-72
2023/03/20 02:14:35;;;;;;;6.57;3.75;;;;;;;9.15;90.06;98584.66;7384559;19;19918;-72
2023/03/20 02:17:12;;;;;;;4.80;3.83;;;;;;;9.18;90.01;98581.72;7383840;19;19970;-72
2023/03/20 02:19:50;;;;;;;7.50;4.22;;;;;;;9.06;90.48;98582.88;7384110;19;20308;-72
2023/03/20 02:22:49;;;;;;;5.25;4.32;;;;;;;9.07;90.55;98579.25;7382995;19;20923;-72
2023/03/20 02:25:41;;;;;;;6.00;5.32;;;;;;;9.13;90.39;98583.94;7381185;19;19923;-72
2023/03/20 02:28:20;;;;;;;4.70;3.88;;;;;;;9.19;90.19;98591.31;7384826;19;20394;-72
2023/03/20 02:31:04;;;;;;;5.75;4.45;;;;;;;9.20;90.02;98594.78;7385520;19;19983;-72
2023/03/20 02:33:34;;;;;;;4.57;3.78;;;;;;;9.22;90.15;98593.66;7384046;19;19918;-72
2023/03/20 02:36:24;;;;;;;7.78;7.07;;;;;;;9.21;90.10;98589.34;7381635;19;19974;-72
2023/03/20 02:39:06;;;;;;;6.18;4.93;;;;;;;9.15;89.97;98589.91;7387057;19;20058;-72
2023/03/20 02:41:38;;;;;;;6.78;5.32;;;;;;;9.10;90.23;98599.25;7384814;19;19922;-72
2023/03/20 02:44:28;;;;;;;6.47;5.60;;;;;;;9.08;90.08;98586.19;7380789;19;19940;-72
2023/03/20 02:47:07;;;;;;;6.68;4.50;;;;;;;9.08;90.09;98588.81;7379005;19;19957;-72
2023/03/20 02:49:36;;;;;;;;;;;;;;;9.09;90.11;98590.50;7385057;19;20371;-72
2023/03/20 02:52:28;;;;;;;7.93;5.65;;;;;;;9.09;90.02;98584.41;7380421;19;20006;-72
2023/03/20 02:55:33;;;;;;;6.53;5.35;;;;;;;9.11;90.11;98587.69;7386197;19;19918;-73
2023/03/20 02:58:12;;;;;;;10.52;6.07;;;;;;;9.09;90.11;98582.59;7382138;19;19922;-72
2023/03/20 03:00:46;;;;;;;7.70;5.47;;;;;;;9.07;89.94;98588.97;7386546;19;19985;-72
2023/03/20 03:03:19;;;;;;;7.65;5.38;;;;;;;9.05;90.04;98589.09;7385592;19;19930;-72
2023/03/20 03:06:07;;;;;;;8.30;6.68;;;;;;;9.07;89.81;98597.72;7385028;19;19922;-72
2023/03/20 03:08:38;;;;;;;6.53;4.70;;;;;;;9.11;89.80;98596.47;7385056;19;19925;-72
2023/03/20 03:11:07;;;;;;;6.72;4.70;;;;;;;9.09;89.66;98597.59;7380378;19;19914;-74
2023/03/20 03:13:52;;;;;;;7.82;5.03;;;;;;;8.96;89.90;98590.78;7381871;19;19926;-72
2023/03/20 03:16:23;;;;;;;5.32;4.65;;;;;;;8.96;89.67;98597.88;7379857;19;20201;-72
2023/03/20 03:19:07;;;;;;;5.18;4.30;;;;;;;8.90;89.93;98601.06;7384504;19;19925;-72
2023/03/20 03:21:36;;;;;;;8.13;7.35;;;;;;;8.74;90.71;98594.56;7384295;19;20652;-72
2023/03/20 03:24:03;;;;;;;6.72;4.97;;;;;;;8.70;90.68;98594.97;7382497;19;20340;-72
2023/03/20 03:26:33;;;;;;;5.07;4.57;;;;;;;8.69;90.87;98602.03;7383471;19;19926;-73
2023/03/20 03:29:05;;;;;;;5.32;4.07;;;;;;;8.68;90.69;98599.53;7378928;19;19925;-72
2023/03/20 03:31:36;;;;;;;4.43;3.70;;;;;;;8.68;90.84;98600.38;7381919;19;19930;-73
2023/03/20 03:34:03;;;;;;;4.97;4.15;;;;;;;8.69;90.62;98604.69;7379610;19;20451;-73
2023/03/20 03:37:01;;;;;;;4.13;3.40;;;;;;;8.70;90.68;98614.25;7379024;19;19986;-72
2023/03/20 03:40:05;;;;;;;4.07;3.08;;;;;;;8.64;90.46;98604.25;7385299;19;20384;-72
2023/03/20 03:42:38;;;;;;;3.72;3.35;;;;;;;8.61;90.79;98617.72;7378533;19;19982;-72
2023/03/20 03:45:13;;;;;;;4.93;3.28;;;;;;;8.66;90.37;98612.88;7379332;19;19907;-72
2023/03/20 03:47:51;;;;;;;2.33;2.13;;;;;;;8.68;90.29;98615.34;7382336;19;20014;-73
2023/03/20 03:50:26;;;;;;;2.65;2.22;;;;;;;8.67;90.04;98622.44;7378295;19;19942;-73
2023/03/20 03:52:59;;;;;;;2.63;2.33;;;;;;;8.66;90.34;98620.78;7384697;19;19931;-72
2023/03/20 03:55:31;;;;;;;2.75;1.90;;;;;;;8.65;90.29;98627.00;7383030;19;19919;-73
2023/03/20 03:58:19;;;;;;;3.45;1.77;;;;;;;8.66;90.60;98626.06;7382157;19;19918;-73
2023/03/20 04:00:49;;;;;;;2.67;2.47;;;;;;;8.61;90.74;98623.00;7384609;19;20304;-72
2023/03/20 04:03:19;;;;;;;3.17;1.92;;;;;;;8.62;91.00;98627.28;7380168;19;19923;-72
2023/03/20 04:05:46;;;;;;;3.25;2.95;;;;;;;8.60;90.61;98629.22;7381097;19;19914;-73
2023/03/20 04:08:13;;;;;;;2.30;2.10;;;;;;;8.64;90.84;98625.38;7382022;19;19934;-73
2023/03/20 04:10:40;;;;;;;2.78;2.45;;;;;;;8.63;90.71;98621.03;7381374;19;19923;-74
2023/03/20 04:13:07;;;;;;;2.65;1.98;;;;;;;8.65;90.75;98627.00;7377874;19;19922;-73
2023/03/20 04:15:34;;;;;;;3.53;1.98;;;;;;;8.70;90.75;98626.59;7384100;19;19918;-73
2023/03/20 04:18:03;;;;;;;2.42;2.08;;;;;;;8.73;90.24;98631.59;7377780;19;20252;-73
2023/03/20 04:20:30;;;;;;;2.85;1.77;;;;;;;8.70;90.18;98634.53;7384281;19;19911;-72
2023/03/20 04:22:57;;;;;;;2.10;1.90;;;;;;;8.72;90.31;98635.22;7380976;19;20195;-73
2023/03/20 04:25:27;;;;;;;1.95;1.85;;;;;;;8.72;90.36;98625.50;7372916;19;19978;-73
2023/03/20 04:27:58;;;;;;;2.00;1.80;;;;;;;8.72;90.32;98627.31;7382255;19;19914;-72
2023/03/20 04:30:37;;;;;;;2.95;1.73;;;;;;;8.72;90.31;98629.94;7380829;19;20612;-73
2023/03/20 04:33:12;;;;;;;2.42;1.80;;;;;;;8.73;90.44;98626.34;7380327;19;19931;-72
2023/03/20 04:36:00;;;;;;;2.80;2.03;;;;;;;8.73;90.24;98623.69;7384148;19;19950;-76
2023/03/20 04:38:27;;;;;;;2.20;1.88;;;;;;;8.75;90.26;98621.75;7383176;19;20331;-73
2023/03/20 04:40:54;;;;;;;1.88;1.75;;;;;;;8.76;90.17;98615.50;7382546;19;19915;-72
2023/03/20 04:43:20;;;;;;;2.10;1.90;;;;;;;8.76;90.14;98615.50;7378668;19;19922;-72
2023/03/20 04:45:47;;;;;;;2.55;2.03;;;;;;;8.73;90.20;98618.41;7378846;19;19998;-72
2023/03/20 04:48:14;;;;;;;2.35;1.75;;;;;;;8.72;90.20;98616.75;7382292;19;20587;-72
2023/03/20 04:50:41;;;;;;;3.10;2.05;;;;;;;8.69;89.97;98619.66;7381892;19;19929;-72
2023/03/20 04:53:07;;;;;;;2.42;2.22;;;;;;;8.67;89.98;98616.34;7380426;19;19938;-72
2023/03/20 04:55:34;;;;;;;1.80;1.50;;;;;;;8.50;90.11;98620.47;7380990;19;20002;-72
2023/03/20 04:58:01;;;;;;;2.08;1.67;;;;;;;8.52;90.41;98623.81;7382686;19;19915;-72
2023/03/20 05:00:28;;;;;;;2.38;2.17;;;;;;;8.53;89.94;98628.97;7377221;19;19922;-74
2023/03/20 05:02:55;;;;;;;3.08;1.77;;;;;;;8.51;90.10;98632.69;7383084;19;19918;-72
2023/03/20 05:05:22;;;;;;;1.70;1.58;;;;;;;8.50;90.15;98633.66;7377124;19;20311;-72
2023/03/20 05:07:50;;;;;;;1.92;1.73;;;;;;;8.50;90.04;98638.91;7379776;19;20371;-73
2023/03/20 05:10:30;;;;;;;2.85;1.90;;;;;;;8.55;90.10;98636.72;7379993;19;19923;-72
2023/03/20 05:13:03;;;;;;;2.65;2.08;;;;;;;8.52;90.07;98642.25;7381850;19;20252;-72
2023/03/20 05:15:56;;;;;;;2.15;1.80;;;;;;;8.53;90.28;98638.66;7380918;19;19915;-73
2023/03/20 05:18:45;;;;;;;2.20;1.95;;;;;;;8.57;90.23;98650.59;7383025;19;19915;-72
2023/03/20 05:21:26;;;;;;;2.50;2.30;;;;;;;8.56;90.04;98654.22;7381846;19;20351;-73
2023/03/20 05:24:09;;;;;;;;;;;;;;;8.57;89.94;98658.50;7383260;19;19948;-72
2023/03/20 05:26:47;;;;;;;2.10;1.90;;;;;;;8.55;90.08;98657.81;7376273;19;20328;-73
2023/03/20 05:29:29;;;;;;;1.50;1.40;;;;;;;8.55;90.32;98658.63;7370722;19;19926;-73
2023/03/20 05:32:13;;;;;;;1.60;1.50;;;;;;;8.56;90.26;98655.06;7377442;19;20878;-73
2023/03/20 05:35:07;;;;;;;4.32;2.10;;;;;;;8.61;90.24;98657.28;7375459;19;19918;-72
2023/03/20 05:37:45;;;;;;;2.78;2.45;;;;;;;8.64;90.22;98656.19;7381680;19;19926;-73
2023/03/20 05:40:24;;;;;;;2.00;1.70;;;;;;;8.66;89.97;98652.44;7380428;19;20011;-72
2023/03/20 05:43:10;;;;;;;1.80;1.70;;;;;;;8.69;89.98;98653.94;7379264;19;19918;-73
2023/03/20 05:45:55;;;;;;;2.58;1.85;;;;;;;8.71;89.86;98646.72;7378694;19;20259;-73
2023/03/20 05:48:41;;;;;;;1.83;1.63;;;;;;;8.74;89.77;98651.72;7378270;19;20011;-73
2023/03/20 05:51:37;;;;;;;2.90;1.60;;;;;;;8.77;89.88;98656.75;7373458;19;21759;-73
2023/03/20 05:54:14;;;;;;;1.88;1.77;;;;;;;8.78;89.85;98656.59;7379227;19;19922;-72
2023/03/20 05:56:56;;;;;;;3.00;2.80;;;;;;;8.75;89.41;98658.69;7376612;19;20521;-73
2023/03/20 05:59:47;;;;;;;2.05;1.73;;;;;;;8.73;89.60;98661.44;7363128;19;19925;-73
2023/03/20 06:02:34;;;;;;;13.80;3.08;;;;;;;8.76;89.65;98665.63;7372800;19;20335;-73
2023/03/20 06:05:10;;;;;;;3.92;3.72;;;;;;;8.68;89.62;98673.38;7374905;19;20654;-72
2023/03/20 06:07:43;;;;;;;2.40;2.20;;;;;;;8.62;89.83;98672.13;7380414;19;19923;-73
2023/03/20 06:10:13;;;;;;;2.58;2.03;;;;;;;8.73;89.62;98673.81;7376782;19;19929;-73
2023/03/20 06:12:40;;;;;;;2.28;1.83;;;;;;;8.64;89.59;98680.75;7379871;19;19923;-73
2023/03/20 06:15:07;;;;;;;3.53;1.92;;;;;;;8.60;90.10;98676.69;7381035;19;19918;-73
2023/03/20 06:17:39;;;;;;;2.33;2.13;;;;;;;8.66;90.07;98675.31;7377841;19;19919;-73
2023/03/20 06:20:07;;;;;;;1.80;1.70;;;;;;;8.68;90.25;98679.50;7382408;19;19918;-73
2023/03/20 06:22:34;;;;;;;3.95;1.95;;;;;;;8.67;90.36;98683.09;7388920;19;19930;-73
2023/03/20 06:25:01;;;;;;;1.70;1.60;;;;;;;8.68;90.41;98678.66;7386799;19;19922;-73
2023/03/20 06:27:33;;;;;;;5.90;2.17;;;;;;;8.72;90.52;98685.34;7385955;19;19921;-72
2023/03/20 06:30:00;;;;;;;2.17;1.98;;;;;;;8.90;89.84;98688.13;7385020;19;20279;-72
2023/03/20 06:32:31;;;;;;;2.45;1.60;;;;;;;8.97;89.64;98689.25;7384343;19;19948;-72
2023/03/20 06:35:00;;;;;;;2.88;2.67;;;;;;;8.95;90.07;98681.50;7383626;19;20029;-72
2023/03/20 06:37:27;;;;;;;2.00;1.80;;;;;;;9.00;90.27;98678.41;7382392;19;19922;-73
2023/03/20 06:40:03;;;;;;;3.15;2.70;;;;;;;9.15;90.02;98677.03;7387974;19;19922;-73
2023/03/20 06:42:30;;;;;;;4.28;2.75;;;;;;;9.27;89.87;98679.53;7386699;19;20283;-72
2023/03/20 06:44:58;;;;;;;2.60;1.90;;;;;;;9.23;89.54;98671.06;7383904;19;19994;-73
2023/03/20 06:47:41;;;;;;;2.65;1.98;;;;;;;9.30;89.31;98674.00;7385696;19;20381;-74
2023/03/20 06:50:09;;;;;;;3.00;2.05;;;;;;;9.31;89.06;98668.53;7388046;19;19918;-72
2023/03/20 06:52:36;;;;;;;2.47;1.92;;;;;;;9.36;88.82;98668.13;7387239;19;19919;-73
2023/03/20 06:55:18;;;;;;;1.95;1.85;;;;;;;9.35;88.01;98669.94;7384947;19;20577;-73
2023/03/20 06:57:46;;;;;;;2.47;2.25;;;;;;;9.29;87.48;98673.13;7388021;19;19922;-73
2023/03/20 07:00:15;;;;;;;3.30;1.83;;;;;;;9.24;86.96;98672.72;7386927;19;20021;-72
2023/03/20 07:02:42;;;;;;;1.90;1.70;;;;;;;9.31;87.04;98678.28;7387037;19;19928;-72
2023/03/20 07:05:12;;;;;;;2.50;2.25;;;;;;;9.39;86.66;98678.41;7385333;19;20362;-72
2023/03/20 07:07:39;;;;;;;3.13;2.08;;;;;;;9.53;86.92;98685.06;7386066;19;20399;-72
2023/03/20 07:10:06;;;;;;;2.38;2.17;;;;;;;9.66;87.31;98685.59;7387942;19;20355;-74
2023/03/20 07:12:33;;;;;;;2.80;2.45;;;;;;;9.84;87.29;98686.50;7385681;19;19921;-73
2023/03/20 07:15:00;;;;;;;4.43;2.28;;;;;;;10.04;87.28;98682.00;7382715;19;19934;-72
2023/03/20 07:17:28;;;;;;;2.38;1.60;;;;;;;10.16;86.89;98687.94;7384296;19;19918;-72
2023/03/20 07:19:55;;;;;;;2.17;1.85;;;;;;;10.23;85.60;98696.97;7386232;19;20490;-72
2023/03/20 07:22:27;;;;;;;2.65;1.90;;;;;;;10.25;84.85;98699.47;7380893;19;19921;-73
2023/03/20 07:25:10;;;;;;;3.20;2.22;;;;;;;10.13;83.98;98713.84;7383799;19;20470;-72
2023/03/20 07:27:37;;;;;;;2.20;1.63;;;;;;;9.98;84.46;98711.69;7383050;19;19978;-72
2023/03/20 07:30:05;;;;;;;1.90;1.60;;;;;;;10.02;84.29;98718.31;7381613;19;19937;-72
2023/03/20 07:32:32;;;;;;;2.80;2.53;;;;;;;9.86;84.34;98713.63;7378794;19;19923;-72
2023/03/20 07:35:00;;;;;;;2.33;1.92;;;;;;;9.77;83.75;98714.50;7381812;19;20610;-72
2023/03/20 07:37:27;;;;;;;2.15;1.95;;;;;;;9.74;83.62;98719.22;7383823;19;19929;-72
2023/03/20 07:39:58;;;;;;;2.53;2.20;;;;;;;9.85;84.22;98714.63;7386944;19;19923;-72
2023/03/20 07:42:29;;;;;;;3.30;3.00;;;;;;;9.94;84.19;98718.22;7384268;19;19926;-72
2023/03/20 07:44:57;;;;;;;3.22;1.83;;;;;;;10.11;84.52;98709.53;7384060;19;19923;-72
2023/03/20 07:47:24;;;;;;;2.97;2.00;;;;;;;10.28;84.03;98710.63;7386090;19;19914;-72
2023/03/20 07:49:51;;;;;;;4.32;2.33;;;;;;;10.44;84.30;98710.00;7387203;19;20006;-72
2023/03/20 07:52:18;;;;;;;2.03;1.75;;;;;;;10.50;82.79;98706.75;7379948;19;19914;-72
2023/03/20 07:54:44;;;;;;;3.35;1.88;;;;;;;10.58;82.96;98702.53;7383761;19;19922;-72
2023/03/20 07:57:12;;;;;;;2.08;1.73;;;;;;;10.51;82.47;98704.97;7385671;19;19985;-72
2023/03/20 07:59:39;;;;;;;3.00;1.52;;;;;;;10.41;82.00;98701.53;7386455;19;20615;-72
2023/03/20 08:02:06;;;;;;;1.67;1.55;;;;;;;10.53;81.73;98695.03;7383003;19;19922;-73
2023/03/20 08:04:32;;;;;;;2.15;1.48;;;;;;;10.75;82.06;98696.47;7380736;19;19922;-72
2023/03/20 08:06:59;;;;;;;1.60;1.45;;;;;;;10.94;82.44;98703.44;7385143;19;19914;-72
2023/03/20 08:09:26;;;;;;;2.65;2.10;;;;;;;11.18;80.98;98701.03;7386720;19;19943;-72
2023/03/20 08:11:53;;;;;;;3.85;1.63;;;;;;;11.40;81.03;98694.44;7386515;19;20335;-72
2023/03/20 08:14:19;;;;;;;2.88;2.00;;;;;;;11.68;81.01;98707.56;7387026;19;20316;-72
2023/03/20 08:16:46;;;;;;;2.35;1.60;;;;;;;11.90;78.93;98710.72;7387676;19;19987;-72
2023/03/20 08:19:20;;;;;;;1.77;1.52;;;;;;;11.97;76.46;98707.28;7385501;19;20271;-72
2023/03/20 08:21:48;;;;;;;2.88;1.83;;;;;;;11.97;77.03;98707.28;7379456;19;20276;-72
2023/03/20 08:24:15;;;;;;;2.13;1.70;;;;;;;11.65;76.28;98707.88;7385347;19;19933;-72
2023/03/20 08:26:42;;;;;;;1.65;1.48;;;;;;;11.48;76.13;98711.38;7388810;19;19918;-72
2023/03/20 08:29:10;;;;;;;1.98;1.58;;;;;;;11.15;77.38;98708.44;7386962;19;19918;-72
2023/03/20 08:31:37;;;;;;;1.88;1.67;;;;;;;10.93;77.83;98702.59;7384893;19;19914;-72
2023/03/20 08:34:03;;;;;;;1.50;1.40;;;;;;;10.89;78.42;98703.06;7387150;19;19935;-72
2023/03/20 08:36:30;;;;;;;1.88;1.33;;;;;;;10.95;78.74;98711.25;7384423;19;19942;-72
2023/03/20 08:38:57;;;;;;;2.85;1.50;;;;;;;10.96;79.43;98709.41;7383741;19;20297;-71
2023/03/20 08:41:24;;;;;;;2.22;2.03;;;;;;;10.96;78.87;98712.91;7384440;19;19922;-72
2023/03/20 08:43:50;;;;;;;3.22;1.65;;;;;;;10.96;78.69;98706.78;7384974;19;19919;-72
2023/03/20 08:46:17;;;;;;;1.95;1.02;;;;;;;11.16;78.45;98712.75;7381626;19;19933;-72
2023/03/20 08:48:44;;;;;;;2.78;2.58;;;;;;;11.18;78.16;98716.91;7387581;19;20393;-72
2023/03/20 08:51:11;;;;;;;2.78;1.30;;;;;;;11.31;77.53;98708.59;7383961;19;19926;-72
2023/03/20 08:53:37;;;;;;;1.85;1.75;;;;;;;11.39;77.27;98707.81;7380249;19;19915;-72
2023/03/20 08:56:05;;;;;;;2.85;1.60;;;;;;;11.28;77.69;98713.38;7381288;19;19922;-72
2023/03/20 08:58:32;;;;;;;2.15;1.55;;;;;;;11.48;77.38;98706.94;7383460;19;19926;-72
2023/03/20 09:01:04;;;;;;;1.80;1.20;;;;;;;11.60;75.85;98704.84;7387121;19;19964;-72
2023/03/20 09:03:31;;;;;;;2.80;1.52;;;;;;;11.45;76.25;98709.03;7384557;19;20338;-72
2023/03/20 09:05:57;;;;;;;1.83;1.73;;;;;;;11.53;75.05;98711.75;7385829;19;19938;-72
2023/03/20 09:08:24;;;;;;;2.45;1.88;;;;;;;11.38;75.36;98711.47;7378860;19;20271;-72
2023/03/20 09:10:51;;;;;;;3.17;1.45;;;;;;;11.39;75.81;98713.13;7384137;19;19918;-71
2023/03/20 09:13:19;;;;;;;2.25;2.05;;;;;;;11.33;75.89;98711.91;7381389;19;20612;-72
2023/03/20 09:15:54;;;;;;;3.90;2.00;;;;;;;11.35;74.63;98720.56;7384935;19;20375;-72
2023/03/20 09:18:22;;;;;;;2.78;1.85;;;;;;;11.89;76.76;98719.66;7386399;19;19931;-72
2023/03/20 09:20:48;;;;;;;3.00;1.80;;;;;;;11.87;74.83;98714.50;7385445;19;19919;-71
2023/03/20 09:23:16;;;;;;;1.83;1.67;;;;;;;12.18;73.80;98717.50;7388375;19;19922;-72
2023/03/20 09:25:42;;;;;;;2.75;2.13;;;;;;;12.57;74.20;98710.91;7384276;19;19922;-72
2023/03/20 09:28:09;;;;;;;3.30;1.90;;;;;;;12.48;72.24;98718.84;7384317;19;19922;-72
2023/03/20 09:30:36;;;;;;;2.10;2.00;;;;;;;12.63;72.06;98712.91;7383301;19;20250;-72
2023/03/20 09:33:03;;;;;;;1.88;1.50;;;;;;;12.42;70.49;98713.31;7384356;19;19974;-72
2023/03/20 09:35:30;;;;;;;1.58;1.48;;;;;;;12.46;72.35;98712.03;7382681;19;19919;-72
2023/03/20 09:37:56;;;;;;;2.47;1.45;;;;;;;12.51;72.88;98715.88;7383660;19;19928;-72
2023/03/20 09:40:27;;;;;;;1.50;1.23;;;;;;;12.50;72.96;98723.97;7383581;19;20320;-71
2023/03/20 09:43:00;;;;;;;3.45;1.70;;;;;;;12.58;73.48;98725.84;7384209;19;19921;-72
2023/03/20 09:46:05;;;;;;;2.47;2.28;;;;;;;12.48;71.93;98720.63;7379133;19;19918;-72
2023/03/20 09:48:50;;;;;;;1.70;1.45;;;;;;;12.28;71.94;98712.94;7381861;19;19922;-71
2023/03/20 09:51:46;;;;;;;2.03;1.30;;;;;;;12.44;71.37;98724.63;7381846;19;19986;-71
2023/03/20 09:54:24;;;;;;;2.53;1.95;;;;;;;12.31;71.61;98714.44;7383642;19;19916;-72
2023/03/20 09:56:52;;;;;;;2.50;1.50;;;;;;;12.62;72.37;98719.22;7389755;19;19914;-72
2023/03/20 09:59:20;;;;;;;1.67;1.58;;;;;;;12.69;71.06;98715.78;7389066;19;19907;-72
2023/03/20 10:01:53;;;;;;;3.28;1.83;;;;;;;12.61;69.54;98715.75;7392250;19;20343;-72
2023/03/20 10:04:23;;;;;;;2.13;1.55;;;;;;;12.67;69.50;98716.91;7386407;19;19926;-72
2023/03/20 10:06:49;;;;;;;3.17;1.63;;;;;;;12.83;69.76;98724.09;7387916;19;19974;-72
2023/03/20 10:09:16;;;;;;;1.67;1.58;;;;;;;13.04;68.58;98721.84;7394454;19;19946;-72
2023/03/20 10:11:45;;;;;;;2.42;1.77;;;;;;;13.03;71.63;98720.16;7391129;19;19922;-72
2023/03/20 10:14:26;;;;;;;1.90;1.55;;;;;;;12.69;70.24;98717.56;7390361;19;19947;-72
2023/03/20 10:17:16;;;;;;;2.15;1.90;;;;;;;12.76;71.13;98725.72;7388412;19;19921;-71
2023/03/20 10:19:50;;;;;;;2.35;1.50;;;;;;;12.90;71.13;98723.31;7388228;19;20270;-72
2023/03/20 10:22:33;;;;;;;3.03;1.98;;;;;;;12.73;69.79;98718.91;7388824;19;19926;-72
2023/03/20 10:25:14;;;;;;;2.13;1.92;;;;;;;12.61;69.97;98720.19;7383446;19;19918;-71
2023/03/20 10:27:48;;;;;;;2.33;1.80;;;;;;;12.64;71.17;98726.03;7387994;19;19922;-71
2023/03/20 10:30:43;;;;;;;2.33;1.92;;;;;;;12.29;71.27;98719.06;7389104;19;19930;-71
2023/03/20 10:33:25;;;;;;;3.13;2.92;;;;;;;12.20;71.68;98723.50;7388209;19;20647;-71
2023/03/20 10:36:14;;;;;;;1.73;1.58;;;;;;;12.23;72.45;98727.66;7384829;19;20425;-71
2023/03/20 10:39:08;;;;;;;1.90;1.40;;;;;;;12.17;72.16;98726.47;7386134;19;19919;-71
2023/03/20 10:41:37;;;;;;;3.90;2.33;;;;;;;12.11;72.73;98726.25;7387521;19;19922;-71
2023/03/20 10:44:05;;;;;;;4.20;1.75;;;;;;;12.03;72.89;98729.69;7384856;19;20347;-71
2023/03/20 10:46:35;;;;;;;4.38;2.50;;;;;;;11.91;72.36;98726.47;7381173;19;19917;-71
2023/03/20 10:49:07;;;;;;;2.35;1.98;;;;;;;11.96;71.62;98721.53;7386977;19;19986;-72
2023/03/20 10:51:58;;;;;;;3.85;2.35;;;;;;;12.00;72.07;98716.75;7384011;19;19951;-71
2023/03/20 10:54:55;;;;;;;2.05;1.77;;;;;;;11.99;72.31;98720.41;7387116;19;19918;-71
2023/03/20 10:57:25;;;;;;;2.95;1.80;;;;;;;11.89;72.26;98712.53;7387150;19;19922;-71
2023/03/20 10:59:53;;;;;;;2.40;1.95;;;;;;;12.01;71.16;98713.94;7390824;19;19926;-71
2023/03/20 11:02:22;;;;;;;3.10;2.17;;;;;;;12.06;72.84;98705.53;7385302;19;20256;-71
2023/03/20 11:04:49;;;;;;;5.72;3.15;;;;;;;12.00;71.05;98700.84;7389443;19;20340;-71
2023/03/20 11:07:33;;;;;;;5.63;3.80;;;;;;;11.89;71.12;98709.88;7386480;19;19929;-71
2023/03/20 11:10:02;;;;;;;4.78;3.05;;;;;;;11.94;72.30;98701.47;7388977;19;19922;-71
2023/03/20 11:12:34;;;;;;;4.43;2.90;;;;;;;11.96;72.55;98707.47;7383934;19;19934;-71
2023/03/20 11:15:20;;;;;;;5.85;3.55;;;;;;;12.10;72.09;98712.16;7387783;19;19923;-71
2023/03/20 11:17:57;;;;;;;5.32;3.35;;;;;;;12.19;71.72;98710.38;7392398;19;20667;-71
2023/03/20 11:20:25;;;;;;;4.85;3.30;;;;;;;12.18;71.12;98714.03;7386451;19;19915;-71
2023/03/20 11:22:58;;;;;;;3.95;2.97;;;;;;;12.23;71.94;98711.75;7385717;19;19929;-71
2023/03/20 11:25:31;;;;;;;5.10;3.80;;;;;;;12.10;71.39;98722.78;7385227;19;19941;-71
2023/03/20 11:28:29;;;;;;;5.82;5.20;;;;;;;11.93;70.99;98721.00;7385441;19;20560;-71
2023/03/20 11:30:58;;;;;;;5.63;3.65;;;;;;;11.89;72.49;98715.19;7387150;19;19934;-71
2023/03/20 11:33:39;;;;;;;;;;;;;;;11.85;72.68;98719.13;7388586;19;20656;-71
2023/03/20 11:36:10;;;;;;;;;;;;;;;11.88;71.46;98718.00;7390107;19;19931;-71
2023/03/20 11:38:44;;;;;;;6.47;3.83;;;;;;;12.21;71.26;98711.88;7392047;19;20040;-71
2023/03/20 11:41:23;;;;;;;6.40;4.72;;;;;;;12.28;69.74;98709.44;7390466;19;20351;-71
2023/03/20 11:43:49;;;;;;;4.53;3.35;;;;;;;12.52;69.45;98709.56;7388035;19;20231;-71
2023/03/20 11:46:20;;;;;;;4.72;4.22;;;;;;;12.60;68.83;98702.63;7386196;19;19923;-71
2023/03/20 11:48:46;;;;;;;4.60;3.38;;;;;;;12.86;68.11;98711.31;7388674;19;19977;-71
2023/03/20 11:51:18;;;;;;;4.28;3.42;;;;;;;12.67;66.76;98703.66;7387055;19;20561;-71
2023/03/20 11:53:48;;;;;;;5.45;3.95;;;;;;;12.45;68.58;98707.69;7385871;19;19924;-71
2023/03/20 11:56:29;;;;;;;7.70;4.35;;;;;;;12.32;68.08;98700.16;7386425;19;19978;-70
2023/03/20 11:59:02;;;;;;;6.97;4.28;;;;;;;12.46;69.07;98701.41;7386799;19;20554;-70
2023/03/20 12:01:37;;;;;;;6.35;4.55;;;;;;;12.45;69.19;98705.91;7390804;19;19941;-71
2023/03/20 12:04:10;;;;;;;7.28;4.32;;;;;;;12.91;69.21;98701.06;7388843;19;19926;-70